aviador You're here:

CYBK Decoded Metar

BAKER LAKE in NU, CANADA
Report Time2017-12-15 19:00:00
UTC Time2017-12-15 19:43:44
Flight Rules vfr VFR
Wind310° at 08 kt
W.Decomp.*RWY 34: 7.1 kt HW 3.6 kt LCW
W.Rank310° ranks 4
Current wind is below 310° avg. (14.1)
Visibility9999 m
Phenomena:N/A
Clouds:Few 014 Hf
Few 050 Hf
Expected CloudBase > 1,600 ft AGL from Temp-Dew spread
CeilingNone
Temp-30°C (ISA -45)
Dew Point-34°C (68% RH)
AAT-36.8°C
QNH1014 hPa
Density Alt-5,863 ft
Elevation59 ft
Report Wrong Elevation
Raw Report
CYBK 151900Z 31008KT 20SM FEW014 FEW050 M30/M34 A2994 RMK SC1SC1
SC TR SLP143=

Extra information for CYBK:More info

Metar Taf Metar & Taf Last 4 Metars F.Rules Stats Wind Profile Meteogram Temp Stats Airport Information Weather charts Add Link Nearby VenuesMetar ALERT Operation Metar Decoded Social comments